Time;durP1;ratioP1;P1;durP2;ratioP2;P2;SDS_P1;SDS_P2;PMS_P1;PMS_P2;Temp;Humidity;BMP_temperature;BMP_pressure;BME280_temperature;BME280_humidity;BME280_pressure;Samples;Min_cycle;Max_cycle;Signal;HPM_P1;HPM_P2
2024/04/24 00:00:27;;;;;;;7.90;4.70;;;6.20;76.60;;;;;;5386378;26;20000;-88
2024/04/24 00:03:02;;;;;;;7.43;4.70;;;6.20;76.10;;;;;;5380318;26;20015;-87
2024/04/24 00:05:28;;;;;;;6.15;4.57;;;6.30;76.20;;;;;;5400078;26;20305;-88
2024/04/24 00:07:54;;;;;;;8.02;5.13;;;6.30;76.30;;;;;;5371534;26;19997;-87
2024/04/24 00:10:20;;;;;;;7.85;5.63;;;6.20;76.60;;;;;;5380108;26;20015;-88
2024/04/24 00:12:45;;;;;;;7.63;5.40;;;6.10;76.30;;;;;;5412080;26;19996;-88
2024/04/24 00:15:11;;;;;;;8.15;4.78;;;6.10;75.60;;;;;;5384809;26;20012;-88
2024/04/24 00:17:36;;;;;;;9.35;5.85;;;6.20;74.70;;;;;;5363193;26;20462;-88
2024/04/24 00:20:06;;;;;;;7.63;5.18;;;6.10;75.80;;;;;;5399677;26;20012;-88
2024/04/24 00:22:31;;;;;;;7.43;5.88;;;6.10;76.30;;;;;;5383386;26;19992;-88
2024/04/24 00:24:57;;;;;;;8.75;6.25;;;6.10;76.20;;;;;;5391719;26;20006;-87
2024/04/24 00:27:22;;;;;;;7.95;6.25;;;6.10;76.30;;;;;;5359261;26;20010;-88
2024/04/24 00:29:48;;;;;;;8.68;5.57;;;6.00;76.00;;;;;;5385130;26;20015;-86
2024/04/24 00:32:14;;;;;;;8.27;5.03;;;5.90;76.90;;;;;;5380151;26;20005;-88
2024/04/24 00:34:39;;;;;;;7.53;4.72;;;5.80;77.80;;;;;;5382564;26;20008;-87
2024/04/24 00:37:05;;;;;;;11.45;6.15;;;5.80;79.10;;;;;;5381509;26;20000;-88
2024/04/24 00:39:31;;;;;;;8.68;5.40;;;5.90;78.40;;;;;;5393496;26;20573;-88
2024/04/24 00:41:56;;;;;;;7.65;5.35;;;5.80;78.30;;;;;;5370991;26;19998;-88
2024/04/24 00:44:22;;;;;;;7.75;5.13;;;5.90;78.30;;;;;;5399126;26;20068;-88
2024/04/24 00:46:49;;;;;;;6.95;4.70;;;6.00;77.30;;;;;;5379782;26;20018;-88
2024/04/24 00:49:16;;;;;;;7.03;5.60;;;6.00;77.20;;;;;;5390984;26;20079;-86
2024/04/24 00:51:43;;;;;;;8.90;5.05;;;6.00;77.10;;;;;;5420520;26;20005;-85
2024/04/24 00:54:09;;;;;;;8.70;5.18;;;5.90;76.50;;;;;;5388228;26;20012;-88
2024/04/24 00:56:35;;;;;;;7.10;5.13;;;5.90;79.80;;;;;;5397185;26;20010;-87
2024/04/24 00:59:01;;;;;;;8.95;4.97;;;5.90;81.50;;;;;;5352098;26;20012;-89
2024/04/24 01:01:27;;;;;;;7.63;5.63;;;5.90;81.10;;;;;;5373664;26;20009;-88
2024/04/24 01:03:53;;;;;;;9.27;5.30;;;5.90;81.90;;;;;;5390318;26;19996;-88
2024/04/24 01:06:19;;;;;;;6.43;5.43;;;5.80;83.00;;;;;;5394980;26;20054;-88
2024/04/24 01:08:44;;;;;;;9.50;5.60;;;5.80;83.20;;;;;;5390450;26;20000;-87
2024/04/24 01:11:10;;;;;;;13.57;6.50;;;5.80;83.80;;;;;;5399251;26;20014;-87
2024/04/24 01:13:36;;;;;;;11.27;5.57;;;5.70;84.40;;;;;;5393013;26;20366;-88
2024/04/24 01:16:08;;;;;;;8.23;5.47;;;5.70;84.40;;;;;;5388395;26;20012;-91
2024/04/24 01:18:39;;;;;;;8.77;5.95;;;5.60;85.20;;;;;;5368820;26;20004;-87
2024/04/24 01:21:06;;;;;;;8.30;5.68;;;5.60;86.90;;;;;;5395917;26;20003;-89
2024/04/24 01:23:53;;;;;;;7.68;6.30;;;5.60;86.50;;;;;;5387327;26;20014;-90
2024/04/24 01:26:40;;;;;;;10.00;6.07;;;5.60;86.20;;;;;;5379469;26;19997;-86
2024/04/24 01:29:06;;;;;;;6.55;4.53;;;5.50;86.80;;;;;;5381172;26;20008;-87
2024/04/24 01:31:31;;;;;;;10.07;5.45;;;5.50;87.50;;;;;;5381939;26;20004;-89
2024/04/24 01:33:57;;;;;;;9.90;4.72;;;5.50;87.80;;;;;;5384699;26;20004;-88
2024/04/24 01:36:23;;;;;;;7.55;5.15;;;5.50;87.50;;;;;;5383199;26;20004;-89
2024/04/24 01:38:48;;;;;;;15.27;6.40;;;5.50;86.70;;;;;;5397830;26;20000;-88
2024/04/24 01:41:14;;;;;;;8.70;5.65;;;5.40;86.10;;;;;;5380572;26;20012;-87
2024/04/24 01:43:40;;;;;;;8.20;5.82;;;5.30;86.00;;;;;;5384006;26;19992;-88
2024/04/24 01:46:05;;;;;;;9.43;5.45;;;5.30;86.60;;;;;;5344402;26;20055;-87
2024/04/24 01:48:31;;;;;;;8.48;5.20;;;5.20;86.70;;;;;;5381549;26;20001;-88
2024/04/24 01:50:56;;;;;;;8.00;6.15;;;5.40;86.40;;;;;;5387164;26;19996;-88
2024/04/24 01:53:22;;;;;;;8.65;5.25;;;5.50;85.50;;;;;;5386448;26;20019;-89
2024/04/24 01:55:48;;;;;;;8.93;5.47;;;5.50;84.80;;;;;;5366397;26;20022;-87
2024/04/24 01:58:14;;;;;;;8.98;5.90;;;5.50;83.70;;;;;;5416245;26;19996;-88
2024/04/24 02:00:39;;;;;;;5.97;4.68;;;5.40;84.00;;;;;;5368007;26;20001;-88
2024/04/24 02:03:05;;;;;;;6.57;5.18;;;5.40;84.80;;;;;;5387096;26;20008;-86
2024/04/24 02:05:31;;;;;;;9.18;5.32;;;5.40;85.90;;;;;;5390021;26;20066;-87
2024/04/24 02:07:56;;;;;;;8.20;5.70;;;5.30;86.30;;;;;;5394688;26;20401;-88
2024/04/24 02:10:22;;;;;;;6.10;4.15;;;5.30;84.10;;;;;;5392743;26;20015;-88
2024/04/24 02:12:47;;;;;;;8.57;5.07;;;5.40;83.50;;;;;;5376093;26;20012;-87
2024/04/24 02:15:13;;;;;;;5.95;4.80;;;5.40;83.70;;;;;;5386707;26;20000;-88
2024/04/24 02:17:39;;;;;;;7.47;5.30;;;5.40;82.40;;;;;;5396251;26;20000;-87
2024/04/24 02:20:05;;;;;;;6.90;5.00;;;5.30;80.40;;;;;;5388741;26;20001;-88
2024/04/24 02:22:30;;;;;;;6.57;4.70;;;5.30;80.30;;;;;;5391190;26;20020;-87
2024/04/24 02:27:40;;;;;;;7.60;5.38;;;5.30;79.90;;;;;;5385723;26;20481;-88
2024/04/24 02:30:06;;;;;;;9.65;4.95;;;5.30;79.30;;;;;;5394164;26;20027;-88
2024/04/24 02:32:32;;;;;;;7.10;4.90;;;5.20;79.80;;;;;;5389961;26;20030;-88
2024/04/24 02:34:57;;;;;;;10.88;6.80;;;5.00;80.70;;;;;;5384740;26;19996;-89
2024/04/24 02:37:23;;;;;;;7.47;6.35;;;4.90;81.30;;;;;;5383582;26;20001;-86
2024/04/24 02:39:49;;;;;;;7.68;5.45;;;4.80;82.30;;;;;;5382223;26;20121;-88
2024/04/24 02:42:14;;;;;;;8.65;5.75;;;4.70;83.10;;;;;;5395654;26;20004;-87
2024/04/24 02:44:41;;;;;;;7.72;6.55;;;4.70;83.50;;;;;;5378346;26;20020;-87
2024/04/24 02:47:06;;;;;;;9.32;5.40;;;4.70;83.60;;;;;;5367640;26;20003;-86
2024/04/24 02:49:32;;;;;;;8.77;6.50;;;4.60;84.00;;;;;;5382303;26;20010;-87
2024/04/24 02:51:58;;;;;;;7.68;5.60;;;4.60;84.10;;;;;;5394278;26;20004;-87
2024/04/24 02:54:23;;;;;;;9.65;6.75;;;4.50;84.70;;;;;;5372047;26;20723;-87
2024/04/24 02:56:49;;;;;;;8.50;5.57;;;4.40;85.90;;;;;;5380649;26;20015;-87
2024/04/24 02:59:15;;;;;;;9.18;5.97;;;4.50;85.80;;;;;;5372297;26;19996;-88
2024/04/24 03:01:40;;;;;;;8.55;5.80;;;4.60;85.40;;;;;;5380233;26;20016;-87
2024/04/24 03:04:06;;;;;;;8.32;5.78;;;4.60;84.90;;;;;;5365349;26;20004;-87
2024/04/24 03:06:32;;;;;;;6.95;6.30;;;4.70;84.80;;;;;;5380396;26;19996;-88
2024/04/24 03:08:57;;;;;;;8.55;6.68;;;4.70;84.50;;;;;;5381811;26;20098;-88
2024/04/24 03:11:23;;;;;;;8.40;6.97;;;4.60;84.20;;;;;;5396971;26;20008;-86
2024/04/24 03:13:49;;;;;;;9.95;6.25;;;4.60;83.90;;;;;;5351019;26;20011;-88
2024/04/24 03:16:14;;;;;;;9.55;5.32;;;4.50;83.70;;;;;;5405681;26;20626;-88
2024/04/24 03:18:42;;;;;;;9.13;5.88;;;4.40;84.10;;;;;;5388843;26;20008;-85
2024/04/24 03:21:08;;;;;;;;;;;4.40;84.00;;;;;;5387249;26;20683;-87
2024/04/24 03:23:33;;;;;;;10.98;4.47;;;4.30;84.50;;;;;;5381559;26;19926;-88
2024/04/24 03:25:59;;;;;;;7.80;4.85;;;4.30;84.50;;;;;;5363293;26;20008;-88
2024/04/24 03:28:24;;;;;;;7.03;5.53;;;4.30;84.70;;;;;;5381580;26;20066;-87
2024/04/24 03:30:50;;;;;;;8.60;5.47;;;4.20;85.30;;;;;;5394122;26;20011;-87
2024/04/24 03:33:16;;;;;;;7.75;5.40;;;4.20;85.30;;;;;;5386704;26;20096;-88
2024/04/24 03:35:41;;;;;;;9.57;5.30;;;4.20;85.60;;;;;;5349628;26;20072;-87
2024/04/24 03:38:07;;;;;;;9.00;5.80;;;4.20;86.70;;;;;;5364213;26;20142;-89
2024/04/24 03:40:33;;;;;;;8.35;6.03;;;4.10;87.20;;;;;;5386000;26;20074;-88
2024/04/24 03:42:59;;;;;;;14.43;6.50;;;4.00;88.10;;;;;;5385564;26;19996;-86
2024/04/24 03:45:24;;;;;;;9.77;8.82;;;3.90;88.10;;;;;;5393223;26;21184;-86
2024/04/24 03:47:51;;;;;;;12.40;6.95;;;3.80;88.70;;;;;;5370484;26;20521;-88
2024/04/24 03:50:16;;;;;;;9.13;6.53;;;3.80;89.20;;;;;;5383496;26;20004;-86
2024/04/24 03:52:42;;;;;;;10.40;7.70;;;3.80;89.80;;;;;;5379266;26;20000;-87
2024/04/24 03:55:08;;;;;;;9.85;7.13;;;3.90;89.30;;;;;;5394377;26;20003;-88
2024/04/24 03:57:33;;;;;;;10.18;6.80;;;4.00;88.40;;;;;;5365825;26;20008;-88
2024/04/24 03:59:59;;;;;;;9.85;6.47;;;4.00;88.10;;;;;;5379845;26;20000;-87
2024/04/24 04:02:25;;;;;;;9.30;6.53;;;4.00;88.00;;;;;;5387327;26;19992;-87
2024/04/24 04:04:50;;;;;;;10.57;7.30;;;4.00;88.20;;;;;;5413870;26;19996;-87
2024/04/24 04:07:16;;;;;;;13.95;7.72;;;3.90;88.20;;;;;;5401089;26;20007;-91
2024/04/24 04:09:42;;;;;;;10.07;7.15;;;4.00;88.20;;;;;;5411279;26;20072;-90
2024/04/24 04:12:08;;;;;;;12.30;7.18;;;3.90;87.90;;;;;;5414094;26;20016;-87
2024/04/24 04:14:34;;;;;;;13.52;8.95;;;3.90;87.70;;;;;;5386797;26;20016;-88
2024/04/24 04:17:00;;;;;;;11.05;8.25;;;3.90;87.30;;;;;;5387823;26;20419;-86
2024/04/24 04:19:26;;;;;;;12.82;8.05;;;3.90;87.50;;;;;;5387242;26;20003;-87
2024/04/24 04:21:51;;;;;;;14.90;8.15;;;3.90;87.20;;;;;;5406499;26;20007;-88
2024/04/24 04:24:17;;;;;;;12.48;7.47;;;3.90;86.60;;;;;;5379034;26;20354;-89
2024/04/24 04:26:43;;;;;;;12.82;7.75;;;4.00;87.00;;;;;;5399140;26;20651;-87
2024/04/24 04:29:08;;;;;;;12.65;7.60;;;4.00;86.00;;;;;;5386574;26;19996;-86
2024/04/24 04:31:34;;;;;;;10.80;7.63;;;4.00;86.10;;;;;;5392117;26;20008;-87
2024/04/24 04:34:00;;;;;;;10.95;7.63;;;4.10;86.00;;;;;;5392355;26;20470;-88
2024/04/24 04:36:25;;;;;;;14.40;7.97;;;4.10;85.50;;;;;;5398908;26;19996;-87
2024/04/24 04:38:51;;;;;;;14.50;7.72;;;4.20;84.80;;;;;;5414155;26;20006;-88
2024/04/24 04:41:16;;;;;;;11.43;9.02;;;4.20;84.10;;;;;;5390577;26;19996;-87
2024/04/24 04:43:42;;;;;;;11.02;6.90;;;4.20;84.50;;;;;;5389055;26;20000;-87
2024/04/24 04:46:08;;;;;;;14.98;9.57;;;4.20;83.90;;;;;;5388847;26;19996;-87
2024/04/24 04:48:33;;;;;;;13.10;11.73;;;4.20;86.50;;;;;;5361925;26;20626;-88
2024/04/24 04:51:03;;;;;;;12.60;8.30;;;4.20;88.50;;;;;;5397402;26;20015;-86
2024/04/24 04:53:29;;;;;;;12.48;8.80;;;4.20;87.70;;;;;;5386933;26;20008;-87
2024/04/24 04:55:54;;;;;;;13.10;7.68;;;4.20;88.20;;;;;;5374681;26;20000;-88
2024/04/24 04:58:20;;;;;;;14.27;9.02;;;4.40;87.90;;;;;;5401317;26;20331;-87
2024/04/24 05:00:46;;;;;;;11.95;7.57;;;4.40;87.20;;;;;;5383600;26;19992;-88
2024/04/24 05:03:11;;;;;;;12.57;8.27;;;4.50;86.70;;;;;;5409908;26;20389;-88
2024/04/24 05:05:37;;;;;;;10.68;7.63;;;4.50;87.70;;;;;;5369415;26;20114;-88
2024/04/24 05:08:03;;;;;;;13.45;7.80;;;4.50;87.70;;;;;;5397845;26;20008;-87
2024/04/24 05:10:28;;;;;;;12.75;8.55;;;4.60;87.50;;;;;;5361118;26;20055;-90
2024/04/24 05:12:54;;;;;;;11.07;7.65;;;4.60;86.60;;;;;;5386179;26;20466;-88
2024/04/24 05:15:22;;;;;;;10.82;8.27;;;4.60;85.80;;;;;;5378597;26;20250;-88
2024/04/24 05:17:47;;;;;;;25.02;8.43;;;4.60;86.50;;;;;;5378639;26;20000;-87
2024/04/24 05:20:13;;;;;;;13.73;8.95;;;4.60;86.80;;;;;;5397828;26;20011;-89
2024/04/24 05:22:50;;;;;;;10.75;7.82;;;4.60;86.00;;;;;;5373124;26;20494;-88
2024/04/24 05:25:16;;;;;;;15.70;8.68;;;4.60;85.60;;;;;;5362999;26;20015;-89
2024/04/24 05:30:30;;;;;;;12.02;8.27;;;4.70;85.90;;;;;;5387695;26;20012;-89
2024/04/24 05:32:56;;;;;;;10.80;8.00;;;4.70;84.80;;;;;;5359583;26;20000;-88
2024/04/24 05:35:22;;;;;;;10.65;7.57;;;4.70;85.10;;;;;;5391131;26;20087;-89
2024/04/24 05:37:48;;;;;;;14.20;8.35;;;4.60;87.40;;;;;;5389295;26;19991;-88
2024/04/24 05:40:13;;;;;;;11.20;7.47;;;4.70;90.10;;;;;;5388365;26;20002;-89
2024/04/24 05:42:39;;;;;;;11.88;8.30;;;4.70;91.70;;;;;;5416118;26;19996;-91
2024/04/24 05:45:05;;;;;;;13.80;8.70;;;4.70;92.70;;;;;;5427435;26;20508;-89
2024/04/24 05:47:30;;;;;;;13.80;9.68;;;4.60;91.30;;;;;;5382245;26;20047;-88
2024/04/24 05:49:57;;;;;;;15.38;8.93;;;4.60;90.70;;;;;;5387791;26;20014;-87
2024/04/24 05:52:23;;;;;;;14.45;9.77;;;4.60;92.10;;;;;;5351468;26;19996;-88
2024/04/24 05:54:51;;;;;;;14.32;9.77;;;4.70;92.60;;;;;;5382874;26;20008;-89
2024/04/24 05:57:17;;;;;;;16.52;10.07;;;4.60;92.10;;;;;;5379521;26;20012;-90
2024/04/24 05:59:43;;;;;;;13.77;9.07;;;4.50;93.70;;;;;;5384862;26;20391;-86
2024/04/24 06:02:08;;;;;;;15.43;10.27;;;4.60;92.10;;;;;;5345480;26;20007;-88
2024/04/24 06:04:34;;;;;;;14.57;9.27;;;4.70;93.00;;;;;;5382441;26;20019;-88
2024/04/24 06:07:00;;;;;;;17.05;10.35;;;4.70;92.80;;;;;;5379932;26;20009;-90
2024/04/24 06:09:25;;;;;;;12.90;9.55;;;4.60;92.90;;;;;;5320819;26;20015;-88
2024/04/24 06:11:51;;;;;;;16.58;11.05;;;4.70;93.60;;;;;;5334819;26;20638;-88
2024/04/24 06:14:17;;;;;;;18.45;9.77;;;4.70;94.00;;;;;;5374528;26;20009;-88
2024/04/24 06:16:44;;;;;;;18.45;10.85;;;4.70;92.80;;;;;;5342233;26;20443;-90
2024/04/24 06:19:10;;;;;;;17.20;10.63;;;4.80;92.30;;;;;;5337559;26;20016;-89
2024/04/24 06:21:38;;;;;;;17.77;10.73;;;4.70;92.50;;;;;;5382795;26;20012;-91
2024/04/24 06:24:04;;;;;;;18.80;11.70;;;4.70;91.80;;;;;;5371900;26;20008;-90
2024/04/24 06:26:30;;;;;;;17.67;10.23;;;4.70;89.10;;;;;;5367363;26;20015;-90
2024/04/24 06:29:04;;;;;;;14.25;9.73;;;4.80;92.20;;;;;;5340730;26;20000;-88
2024/04/24 06:31:30;;;;;;;18.95;12.27;;;4.90;90.60;;;;;;5361806;26;20014;-86
2024/04/24 06:33:56;;;;;;;22.20;11.73;;;4.80;90.60;;;;;;5395778;26;20631;-88
2024/04/24 06:36:21;;;;;;;16.42;10.70;;;4.70;92.30;;;;;;5390286;26;19992;-90
2024/04/24 06:38:47;;;;;;;18.13;12.48;;;4.80;92.70;;;;;;5386848;26;20452;-93
2024/04/24 06:41:16;;;;;;;18.40;10.32;;;4.80;92.40;;;;;;5377246;26;20004;-92
2024/04/24 06:43:42;;;;;;;18.08;11.73;;;4.80;90.10;;;;;;5375159;26;20009;-91
2024/04/24 06:46:08;;;;;;;15.68;11.15;;;4.80;90.40;;;;;;5391754;26;20024;-88
2024/04/24 06:48:34;;;;;;;18.65;11.02;;;4.80;89.80;;;;;;5398801;26;19995;-90
2024/04/24 06:51:00;;;;;;;17.35;10.52;;;4.90;91.80;;;;;;5426293;26;20010;-89
2024/04/24 06:53:26;;;;;;;21.48;10.82;;;4.90;88.50;;;;;;5396477;26;20355;-91
2024/04/24 06:55:52;;;;;;;21.33;11.73;;;4.80;89.80;;;;;;5383908;26;20051;-89
2024/04/24 06:58:18;;;;;;;18.88;12.93;;;4.80;90.60;;;;;;5411384;26;20014;-89
2024/04/24 07:00:43;;;;;;;20.27;13.02;;;4.90;90.20;;;;;;5360722;26;20706;-89
2024/04/24 07:03:13;;;;;;;22.83;14.20;;;4.90;90.80;;;;;;5411629;26;20012;-89
2024/04/24 07:05:38;;;;;;;23.85;13.90;;;4.90;90.40;;;;;;5384799;26;20004;-89
2024/04/24 07:08:07;;;;;;;16.38;11.32;;;5.00;90.20;;;;;;5406647;26;20011;-92
2024/04/24 07:10:33;;;;;;;22.55;14.43;;;5.00;90.00;;;;;;5371443;26;20008;-91
2024/04/24 07:12:59;;;;;;;22.80;13.32;;;5.00;90.10;;;;;;5379650;26;20015;-91
2024/04/24 07:15:25;;;;;;;20.50;12.85;;;5.00;89.40;;;;;;5390676;26;20011;-89
2024/04/24 07:17:51;;;;;;;19.45;11.52;;;5.00;89.80;;;;;;5392301;26;19996;-89
2024/04/24 07:20:17;;;;;;;19.40;12.15;;;5.00;89.60;;;;;;5360669;26;20000;-90
2024/04/24 07:22:42;;;;;;;21.55;12.90;;;5.00;88.60;;;;;;5363485;26;20069;-90
2024/04/24 07:25:08;;;;;;;22.95;13.07;;;5.00;91.00;;;;;;5399222;26;20025;-92
2024/04/24 07:27:34;;;;;;;23.08;13.27;;;5.00;90.20;;;;;;5412124;26;20052;-95
2024/04/24 07:30:05;;;;;;;26.80;12.93;;;4.80;92.00;;;;;;5401914;26;19992;-95
2024/04/24 07:32:31;;;;;;;21.15;13.27;;;4.80;92.80;;;;;;5388180;26;19997;-94
2024/04/24 07:35:00;;;;;;;23.38;14.27;;;4.80;93.50;;;;;;5400712;26;20024;-89
2024/04/24 07:37:29;;;;;;;21.33;13.20;;;4.80;93.20;;;;;;5356032;26;20058;-94
2024/04/24 07:39:54;;;;;;;27.77;16.17;;;4.70;94.50;;;;;;5403561;26;19999;-96
2024/04/24 07:42:20;;;;;;;25.33;14.60;;;4.70;95.90;;;;;;5414014;26;20000;-93
2024/04/24 07:44:46;;;;;;;26.77;14.80;;;4.70;96.40;;;;;;5403505;26;20004;-91
2024/04/24 07:47:14;;;;;;;26.35;16.75;;;4.70;98.10;;;;;;5392197;26;20055;-91
2024/04/24 07:49:40;;;;;;;29.17;14.90;;;4.60;98.30;;;;;;5356248;26;20000;-91
2024/04/24 07:52:06;;;;;;;29.65;17.02;;;4.60;99.90;;;;;;5414104;26;20014;-91
2024/04/24 07:54:31;;;;;;;31.92;18.60;;;4.30;99.90;;;;;;5395789;26;20007;-90
2024/04/24 07:56:57;;;;;;;34.13;18.05;;;4.20;99.90;;;;;;5397695;26;19996;-91
2024/04/24 07:59:23;;;;;;;35.67;19.63;;;4.20;99.90;;;;;;5407932;26;20512;-91
2024/04/24 08:01:48;;;;;;;37.03;18.05;;;4.20;99.90;;;;;;5407312;26;20010;-91
2024/04/24 08:04:14;;;;;;;31.95;18.08;;;4.30;99.90;;;;;;5402634;26;20460;-90
2024/04/24 08:06:40;;;;;;;30.88;19.15;;;4.30;99.90;;;;;;5368562;26;20012;-90
2024/04/24 08:09:06;;;;;;;30.13;17.45;;;4.20;99.90;;;;;;5357094;26;20069;-93
2024/04/24 08:11:32;;;;;;;35.45;19.85;;;4.30;99.90;;;;;;5390890;26;20008;-90
2024/04/24 08:13:58;;;;;;;34.08;18.65;;;4.20;99.90;;;;;;5357993;26;20000;-90
2024/04/24 08:16:26;;;;;;;34.90;17.63;;;4.20;99.90;;;;;;5393102;26;20015;-90
2024/04/24 08:18:52;;;;;;;33.72;18.67;;;4.20;99.90;;;;;;5397635;26;20019;-91
2024/04/24 08:21:18;;;;;;;34.30;16.63;;;4.20;99.90;;;;;;5402959;26;20007;-91
2024/04/24 08:23:44;;;;;;;34.72;18.67;;;4.30;99.90;;;;;;5397109;26;20003;-91
2024/04/24 08:26:10;;;;;;;34.05;18.15;;;4.40;99.90;;;;;;5408117;26;20000;-91
2024/04/24 08:28:36;;;;;;;35.72;18.45;;;4.40;99.90;;;;;;5394473;26;20066;-93
2024/04/24 08:31:02;;;;;;;31.42;18.02;;;4.40;99.90;;;;;;5394290;26;19996;-91
2024/04/24 08:33:34;;;;;;;35.40;20.15;;;4.40;99.90;;;;;;5417977;26;20003;-90
2024/04/24 08:36:09;;;;;;;36.28;19.98;;;4.50;99.90;;;;;;5390347;26;20048;-90
2024/04/24 08:38:35;;;;;;;39.33;21.25;;;4.50;99.90;;;;;;5351853;26;20000;-90
2024/04/24 08:41:11;;;;;;;43.85;20.30;;;4.50;99.90;;;;;;5386335;26;20010;-90
2024/04/24 08:43:42;;;;;;;35.65;19.35;;;4.40;99.90;;;;;;5367840;26;20003;-90
2024/04/24 08:46:12;;;;;;;36.40;20.63;;;4.50;99.90;;;;;;5384600;26;20001;-90
2024/04/24 08:48:42;;;;;;;37.70;20.08;;;4.40;99.90;;;;;;5378547;26;20000;-92
2024/04/24 08:51:09;;;;;;;43.10;21.38;;;4.50;99.90;;;;;;5367961;26;20083;-90
2024/04/24 08:53:36;;;;;;;38.45;20.35;;;4.60;99.90;;;;;;5390428;26;20710;-90
2024/04/24 08:56:08;;;;;;;40.53;21.33;;;4.70;99.90;;;;;;5381863;26;19996;-89
2024/04/24 08:58:38;;;;;;;35.47;19.08;;;4.70;99.90;;;;;;5384426;26;20032;-89
2024/04/24 09:01:14;;;;;;;37.72;19.92;;;4.70;99.90;;;;;;5366411;26;20014;-90
2024/04/24 09:03:42;;;;;;;35.03;21.13;;;4.70;99.90;;;;;;5332823;26;20074;-90
2024/04/24 09:06:10;;;;;;;34.25;18.50;;;4.70;99.90;;;;;;5377084;26;20007;-89
2024/04/24 09:08:36;;;;;;;35.03;19.45;;;4.80;99.90;;;;;;5371896;26;20044;-89
2024/04/24 09:11:02;;;;;;;32.50;17.38;;;4.70;99.90;;;;;;5387214;26;20008;-89
2024/04/24 09:13:28;;;;;;;36.42;19.83;;;4.70;99.90;;;;;;5365983;26;20041;-90
2024/04/24 09:15:55;;;;;;;28.92;16.75;;;4.80;99.90;;;;;;5384232;26;20092;-89
2024/04/24 09:18:21;;;;;;;31.90;17.42;;;4.70;99.90;;;;;;5369207;26;20008;-90
2024/04/24 09:20:49;;;;;;;32.47;18.77;;;4.80;99.90;;;;;;5386854;26;20000;-91
2024/04/24 09:23:18;;;;;;;31.60;18.13;;;4.80;99.90;;;;;;5356302;26;20062;-89
2024/04/24 09:25:44;;;;;;;29.73;17.27;;;4.80;99.90;;;;;;5385946;26;20011;-91
2024/04/24 09:28:16;;;;;;;33.00;16.80;;;4.90;99.90;;;;;;5380346;26;20009;-90
2024/04/24 09:30:42;;;;;;;29.25;17.40;;;4.90;99.90;;;;;;5413542;26;20054;-91
2024/04/24 09:33:07;;;;;;;28.75;16.42;;;4.80;99.90;;;;;;5384699;26;20503;-91
2024/04/24 09:35:33;;;;;;;33.38;19.52;;;4.80;99.90;;;;;;5386086;26;20754;-89
2024/04/24 09:38:00;;;;;;;31.05;17.52;;;4.70;99.90;;;;;;5372020;26;20465;-87
2024/04/24 09:40:28;;;;;;;32.20;18.65;;;4.70;99.90;;;;;;5369993;26;20016;-90
2024/04/24 09:42:54;;;;;;;29.38;18.40;;;4.90;99.90;;;;;;5352002;26;20066;-88
2024/04/24 09:45:20;;;;;;;32.72;17.30;;;4.90;99.90;;;;;;5400266;26;20007;-90
2024/04/24 09:47:49;;;;;;;28.75;16.00;;;5.10;99.90;;;;;;5385846;26;19996;-89
2024/04/24 09:50:15;;;;;;;32.50;18.35;;;5.20;99.90;;;;;;5375787;26;19996;-89
2024/04/24 09:52:49;;;;;;;30.75;17.95;;;5.30;99.90;;;;;;5352240;26;20529;-89
2024/04/24 09:55:16;;;;;;;36.55;19.30;;;5.40;99.90;;;;;;5380386;26;20062;-90
2024/04/24 09:57:45;;;;;;;34.53;17.95;;;5.40;99.90;;;;;;5381505;26;20022;-90
2024/04/24 10:00:12;;;;;;;33.78;17.23;;;5.50;99.90;;;;;;5358216;26;20446;-89
2024/04/24 10:02:45;;;;;;;35.25;19.92;;;5.40;99.90;;;;;;5353423;26;20014;-89
2024/04/24 10:05:23;;;;;;;30.20;16.75;;;5.30;99.90;;;;;;5354957;26;20004;-89
2024/04/24 10:08:01;;;;;;;34.85;17.25;;;5.10;99.90;;;;;;5354452;26;20058;-90
2024/04/24 10:10:38;;;;;;;33.92;18.48;;;5.10;99.90;;;;;;5343753;26;20014;-90
2024/04/24 10:13:05;;;;;;;29.80;17.48;;;4.90;99.90;;;;;;5377083;26;20016;-91
2024/04/24 10:15:43;;;;;;;30.50;16.85;;;4.80;99.90;;;;;;5338478;26;20054;-90
2024/04/24 10:18:09;;;;;;;31.92;17.65;;;4.80;99.90;;;;;;5362978;26;20015;-91
2024/04/24 10:20:38;;;;;;;32.65;17.98;;;4.80;99.90;;;;;;5394619;26;20332;-91
2024/04/24 10:23:04;;;;;;;31.60;18.42;;;4.80;99.90;;;;;;5376336;26;20078;-92
2024/04/24 10:25:32;;;;;;;31.27;17.17;;;4.80;99.90;;;;;;5387958;26;20000;-90
2024/04/24 10:27:58;;;;;;;32.00;17.25;;;4.80;99.90;;;;;;5377640;26;20000;-91
2024/04/24 10:30:26;;;;;;;34.85;17.80;;;5.00;99.90;;;;;;5356847;26;20010;-91
2024/04/24 10:32:52;;;;;;;30.30;20.73;;;5.20;99.90;;;;;;5395500;26;20460;-91
2024/04/24 10:35:20;;;;;;;34.00;18.60;;;5.40;99.90;;;;;;5406755;26;20000;-91
2024/04/24 10:37:57;;;;;;;;;;;5.40;99.90;;;;;;5380632;26;20405;-91
2024/04/24 10:40:27;;;;;;;33.47;17.33;;;5.60;99.90;;;;;;5417522;26;19931;-89
2024/04/24 10:42:58;;;;;;;32.42;18.52;;;5.60;99.90;;;;;;5409874;26;20011;-89
2024/04/24 10:45:24;;;;;;;30.73;15.05;;;5.60;99.90;;;;;;5340986;26;20004;-89
2024/04/24 10:47:53;;;;;;;32.70;18.13;;;5.70;99.90;;;;;;5400875;26;20000;-90
2024/04/24 10:50:19;;;;;;;31.50;16.40;;;5.60;99.90;;;;;;5396383;26;20635;-92
2024/04/24 10:52:51;;;;;;;33.97;18.77;;;5.70;99.90;;;;;;5366216;26;20015;-91
2024/04/24 10:55:17;;;;;;;28.95;17.52;;;5.80;99.90;;;;;;5402306;26;20032;-91
2024/04/24 10:57:47;;;;;;;27.77;18.00;;;6.00;99.90;;;;;;5398236;26;20067;-90
2024/04/24 11:00:17;;;;;;;32.50;17.08;;;6.20;99.90;;;;;;5393739;26;20019;-92
2024/04/24 11:02:47;;;;;;;33.20;17.02;;;6.30;99.90;;;;;;5366916;26;20563;-91
2024/04/24 11:05:13;;;;;;;29.23;16.92;;;6.40;99.90;;;;;;5362212;26;20004;-90
2024/04/24 11:07:40;;;;;;;29.63;16.50;;;6.50;99.90;;;;;;5396545;26;20350;-91
2024/04/24 11:10:07;;;;;;;27.95;16.70;;;6.70;98.20;;;;;;5401353;26;20018;-93
2024/04/24 11:12:39;;;;;;;28.75;15.48;;;6.70;97.30;;;;;;5380438;26;19988;-91
2024/04/24 11:15:07;;;;;;;25.13;13.98;;;7.00;97.30;;;;;;5387938;26;20032;-92
2024/04/24 11:17:32;;;;;;;22.70;15.00;;;7.40;93.30;;;;;;5382012;26;20010;-90
2024/04/24 11:19:58;;;;;;;27.35;15.75;;;7.70;95.90;;;;;;5411852;26;19996;-90
2024/04/24 11:22:27;;;;;;;24.23;15.27;;;7.80;91.20;;;;;;5418112;26;20003;-89
2024/04/24 11:24:55;;;;;;;29.27;15.23;;;7.60;89.80;;;;;;5391167;26;20004;-88
2024/04/24 11:27:26;;;;;;;26.05;15.65;;;7.60;91.10;;;;;;5384903;26;19997;-90
2024/04/24 11:29:52;;;;;;;28.45;14.48;;;7.40;90.20;;;;;;5383563;26;20054;-90
2024/04/24 11:32:22;;;;;;;25.27;14.07;;;7.40;91.50;;;;;;5400105;26;20412;-90
2024/04/24 11:34:49;;;;;;;22.67;14.07;;;7.50;92.90;;;;;;5387229;26;20004;-91
2024/04/24 11:37:15;;;;;;;25.27;14.48;;;7.30;90.20;;;;;;5388701;26;20054;-89
2024/04/24 11:39:48;;;;;;;29.42;17.13;;;7.10;90.40;;;;;;5390673;26;20022;-91
2024/04/24 11:42:14;;;;;;;27.40;15.93;;;6.90;94.00;;;;;;5390758;26;20483;-91
2024/04/24 11:44:39;;;;;;;10.85;5.85;;;6.50;95.60;;;;;;5379527;26;20034;-92
2024/04/24 11:47:05;;;;;;;7.63;4.35;;;6.40;91.80;;;;;;5401608;26;20056;-92
2024/04/24 11:49:31;;;;;;;2.92;2.42;;;6.10;91.80;;;;;;5386748;26;20111;-92
2024/04/24 11:51:57;;;;;;;3.72;2.47;;;5.70;90.10;;;;;;5400722;26;19996;-91
2024/04/24 11:54:27;;;;;;;3.92;2.20;;;5.30;95.30;;;;;;5367977;26;19993;-91
2024/04/24 11:56:53;;;;;;;4.10;2.08;;;5.00;96.00;;;;;;5375266;26;20072;-90
2024/04/24 11:59:23;;;;;;;4.50;3.08;;;4.60;97.40;;;;;;5355528;26;20016;-89
2024/04/24 12:01:48;;;;;;;5.90;3.17;;;4.50;99.90;;;;;;5374063;26;20000;-92
2024/04/24 12:04:14;;;;;;;5.47;3.35;;;4.20;99.20;;;;;;5388196;26;20019;-91
2024/04/24 12:06:42;;;;;;;5.28;2.90;;;4.20;99.90;;;;;;5392010;26;20000;-90
2024/04/24 12:09:10;;;;;;;5.07;3.65;;;4.20;99.90;;;;;;5421489;26;20011;-90
2024/04/24 12:11:44;;;;;;;6.38;4.03;;;4.30;99.90;;;;;;5421345;26;20014;-91
2024/04/24 12:14:20;;;;;;;5.90;4.43;;;4.40;99.90;;;;;;5359863;26;19992;-90
2024/04/24 12:16:46;;;;;;;5.45;3.25;;;4.50;99.90;;;;;;5378156;26;20034;-91
2024/04/24 12:19:12;;;;;;;5.72;3.15;;;4.60;99.90;;;;;;5396614;26;19996;-90
2024/04/24 12:21:37;;;;;;;5.03;3.30;;;4.70;99.90;;;;;;5363827;26;19993;-90
2024/04/24 12:24:03;;;;;;;5.45;3.13;;;4.80;99.90;;;;;;5376515;26;20001;-92
2024/04/24 12:26:29;;;;;;;5.07;3.20;;;4.90;99.90;;;;;;5396487;26;20077;-90
2024/04/24 12:28:55;;;;;;;6.10;3.47;;;5.10;99.90;;;;;;5350877;26;20015;-91
2024/04/24 12:31:20;;;;;;;5.28;3.15;;;5.30;99.90;;;;;;5406476;26;20003;-91
2024/04/24 12:33:46;;;;;;;3.90;2.45;;;5.20;98.60;;;;;;5365993;26;20012;-90
2024/04/24 12:36:12;;;;;;;3.28;2.08;;;5.20;99.90;;;;;;5339167;26;20009;-91
2024/04/24 12:38:37;;;;;;;3.38;1.35;;;5.10;99.90;;;;;;5388273;26;20005;-91
2024/04/24 12:41:03;;;;;;;3.08;2.13;;;5.10;99.90;;;;;;5383474;26;20065;-92
2024/04/24 12:43:29;;;;;;;3.03;2.50;;;5.00;99.90;;;;;;5401616;26;20399;-89
2024/04/24 12:45:54;;;;;;;3.42;2.42;;;4.90;99.90;;;;;;5393218;26;20035;-92
2024/04/24 12:48:20;;;;;;;3.20;2.13;;;4.90;99.90;;;;;;5346050;26;20008;-91